NCAR-RAP Real-Time Weather Data

Output produced by METARs form (10 April 2020  06:34 UTC)
found at http://weather.rap.ucar.edu/surface/
 
KMEM 100554Z 35010KT 10SM SCT120 SCT240 14/M01 A2999 RMK AO2 SLP152 T01441011 10183 20144 402390139 51017
KMEM 100454Z 35007KT 10SM FEW120 BKN230 15/00 A2998 RMK AO2 SLP150 T01500000
KMEM 100354Z 35012G17KT 10SM FEW110 OVC210 17/02 A2996 RMK AO2 SLP142 T01670017
KMEM 100254Z 31007KT 10SM FEW120 BKN210 16/06 A2994 RMK AO2 SLP135 T01610061 53016
KMEM 100154Z 00000KT 10SM SCT110 BKN210 18/04 A2991 RMK AO2 SLP125 T01780039
KMEM 100054Z 28003KT 10SM BKN110 OVC250 17/04 A2989 RMK AO2 SLP118 T01720039
KMEM 092354Z 32008KT 10SM SCT120 BKN180 BKN250 18/03 A2989 RMK AO2 SLP120 T01830028 10217 20183 58009
KMEM 092254Z 33006KT 10SM FEW180 BKN250 19/04 A2990 RMK AO2 SLP123 T01890044
KMEM 092154Z 30009KT 10SM FEW180 SCT250 21/04 A2991 RMK AO2 SLP127 T02060039
KMEM 092054Z 32010KT 10SM FEW200 BKN250 21/02 A2992 RMK AO2 SLP129 T02060022 58014
KMEM 091954Z 29009KT 10SM FEW200 BKN250 21/03 A2994 RMK AO2 SLP135 T02110033
KMEM 091854Z 00000KT 10SM SCT250 21/02 A2995 RMK AO2 SLP139 T02060017
KMEM 091754Z 36008G15KT 10SM FEW200 BKN250 21/02 A2996 RMK AO2 SLP142 T02060022 10206 20139 58011
KMEM 091654Z 02014G18KT 10SM FEW200 SCT250 19/02 A2998 RMK AO2 SLP150 T01940017
KMEM 091554Z 03010G20KT 10SM FEW200 SCT250 18/01 A2999 RMK AO2 SLP153 T01830011
KMEM 091454Z 04012KT 10SM FEW180 SCT250 17/02 A2999 RMK AO2 SLP153 T01670022 51017
KMEM 091354Z 01014KT 10SM FEW180 BKN250 16/04 A2999 RMK AO2 SLP152 T01560039
KMEM 091254Z 01014G23KT 10SM FEW140 FEW200 14/03 A2996 RMK AO2 PK WND 36029/1209 SLP143 T01440033
KMEM 091154Z 01015G21KT 10SM SCT015 SCT160 14/05 A2994 RMK AO2 SLP136 T01440050 10239 20139 51036
KMEM 091054Z 01014G26KT 10SM FEW013 15/06 A2992 RMK AO2 PK WND 01026/1046 SLP130 T01500056
KMEM 090954Z 01014G18KT 10SM CLR 16/08 A2988 RMK AO2 PK WND 02028/0906 SLP115 T01560078
KMEM 090854Z 02020G27KT 10SM CLR 17/11 A2984 RMK AO2 PK WND 36032/0831 PRESRR SLP100 T01720106 53052
KMEM 090828Z 01016G22KT 10SM BKN041 18/11 A2980 RMK AO2 PK WND 01026/0757 PRESRR T01780111
KMEM 090807Z 36016G24KT 10SM BKN039 18/13 A2978 RMK AO2 PK WND 01026/0757 LTG DSNT SE-SW T01830128
KMEM 090754Z 01019G35KT 10SM FEW035 SCT044 SCT055 19/13 A2977 RMK AO2 PK WND 02037/0743 WSHFT 0713 LTG DSNT E-SW SLP077 T01940133